createdAt,value
2022-08-11T00:01:23.305Z,21.46
2022-08-11T00:03:59.740Z,21.47
2022-08-11T00:06:32.994Z,21.46
2022-08-11T00:09:01.882Z,21.32
2022-08-11T00:11:44.883Z,21.40
2022-08-11T00:14:37.579Z,21.19
2022-08-11T00:17:12.989Z,21.15
2022-08-11T00:20:12.649Z,21.04
2022-08-11T00:22:30.985Z,21.07
2022-08-11T00:25:02.427Z,21.11
2022-08-11T00:27:37.562Z,21.08
2022-08-11T00:30:06.283Z,20.93
2022-08-11T00:32:34.029Z,20.90
2022-08-11T00:35:50.943Z,20.81
2022-08-11T00:37:52.065Z,20.82
2022-08-11T00:40:42.322Z,20.83
2022-08-11T00:43:24.138Z,20.85
2022-08-11T00:46:38.391Z,20.93
2022-08-11T00:49:11.962Z,20.97
2022-08-11T00:52:04.595Z,21.07
2022-08-11T00:54:38.491Z,21.12
2022-08-11T00:57:42.427Z,21.11
2022-08-11T01:00:16.541Z,21.10
2022-08-11T01:03:13.039Z,21.04
2022-08-11T01:05:42.397Z,21.01
2022-08-11T01:08:23.273Z,20.96
2022-08-11T01:11:17.786Z,20.91
2022-08-11T01:14:05.696Z,20.90
2022-08-11T01:16:53.795Z,20.91
2022-08-11T01:20:44.725Z,20.93
2022-08-11T01:22:52.658Z,20.98
2022-08-11T01:25:19.111Z,20.98
2022-08-11T01:28:26.192Z,20.97
2022-08-11T01:31:30.059Z,20.87
2022-08-11T01:34:26.994Z,20.81
2022-08-11T01:37:13.663Z,20.61
2022-08-11T01:39:49.332Z,20.45
2022-08-11T01:42:40.784Z,20.29
2022-08-11T01:45:28.367Z,20.24
2022-08-11T01:48:37.997Z,20.13
2022-08-11T01:51:25.697Z,20.03
2022-08-11T01:54:00.083Z,19.99
2022-08-11T01:56:42.143Z,19.99
2022-08-11T01:59:08.581Z,19.88
2022-08-11T02:02:16.645Z,19.92
2022-08-11T02:04:59.964Z,19.84
2022-08-11T02:07:38.728Z,19.79
2022-08-11T02:10:43.309Z,19.60
2022-08-11T02:13:44.900Z,19.62
2022-08-11T02:16:28.053Z,19.57
2022-08-11T02:19:47.313Z,19.52
2022-08-11T02:22:35.597Z,19.44
2022-08-11T02:25:07.060Z,19.44
2022-08-11T02:27:41.715Z,19.37
2022-08-11T02:30:13.614Z,19.29
2022-08-11T02:33:24.555Z,19.29
2022-08-11T02:36:16.687Z,19.17
2022-08-11T02:39:06.605Z,19.21
2022-08-11T02:42:35.239Z,19.06
2022-08-11T02:45:21.285Z,18.96
2022-08-11T02:48:09.324Z,18.89
2022-08-11T02:50:42.722Z,18.78
2022-08-11T02:53:36.673Z,18.76
2022-08-11T02:56:44.728Z,18.57
2022-08-11T02:59:42.420Z,18.64
2022-08-11T03:02:19.916Z,18.59
2022-08-11T03:05:01.199Z,18.42
2022-08-11T03:07:40.059Z,18.67
2022-08-11T03:10:44.139Z,18.63
2022-08-11T03:13:50.866Z,18.68
2022-08-11T03:16:51.582Z,18.58
2022-08-11T03:19:34.641Z,18.58
2022-08-11T03:22:19.550Z,18.56
2022-08-11T03:24:46.536Z,18.59
2022-08-11T03:27:40.209Z,18.60
2022-08-11T03:30:16.293Z,18.48
2022-08-11T03:33:20.121Z,18.42
2022-08-11T03:36:11.082Z,18.30
2022-08-11T03:39:06.230Z,18.11
2022-08-11T03:42:02.545Z,18.15
2022-08-11T03:45:09.920Z,18.14
2022-08-11T03:47:53.491Z,18.16
2022-08-11T03:50:46.374Z,18.15
2022-08-11T03:53:53.792Z,18.20
2022-08-11T03:56:55.004Z,18.16
2022-08-11T03:59:37.775Z,18.17
2022-08-11T04:02:48.003Z,18.11
2022-08-11T04:05:33.470Z,18.15
2022-08-11T04:08:35.276Z,18.16
2022-08-11T04:11:08.013Z,18.09
2022-08-11T04:13:55.181Z,18.03
2022-08-11T04:16:44.664Z,17.88
2022-08-11T04:19:38.914Z,17.92
2022-08-11T04:22:48.361Z,17.87
2022-08-11T04:25:58.652Z,17.87
2022-08-11T04:28:56.395Z,17.80
2022-08-11T04:31:55.592Z,17.74
2022-08-11T04:34:49.475Z,17.69
2022-08-11T04:37:53.704Z,17.71
2022-08-11T04:40:41.483Z,17.69
2022-08-11T04:44:02.881Z,17.66
2022-08-11T04:46:58.029Z,17.66
2022-08-11T04:49:55.194Z,17.74
2022-08-11T04:52:55.546Z,17.85
2022-08-11T04:56:02.535Z,17.87
2022-08-11T04:59:33.475Z,17.86
2022-08-11T05:03:08.767Z,17.89
2022-08-11T05:05:35.892Z,17.84
2022-08-11T05:08:24.045Z,17.83
2022-08-11T05:11:06.194Z,17.74
2022-08-11T05:13:56.043Z,17.79
2022-08-11T05:16:49.656Z,17.77
2022-08-11T05:19:40.005Z,17.89
2022-08-11T05:22:31.274Z,17.89
2022-08-11T05:26:44.264Z,17.94
2022-08-11T05:28:56.338Z,18.13
2022-08-11T05:31:50.939Z,18.16
2022-08-11T05:34:44.160Z,18.31
2022-08-11T05:37:28.274Z,18.59
2022-08-11T05:40:24.447Z,18.78
2022-08-11T05:43:16.983Z,18.92
2022-08-11T05:46:05.430Z,18.95
2022-08-11T05:48:52.922Z,19.08
2022-08-11T05:51:39.072Z,19.13
2022-08-11T05:54:36.298Z,19.22
2022-08-11T05:57:03.322Z,19.41
2022-08-11T05:59:31.743Z,19.56
2022-08-11T06:02:04.260Z,19.60
2022-08-11T06:04:31.557Z,19.72
2022-08-11T06:07:01.309Z,19.84
2022-08-11T06:09:31.895Z,19.89
2022-08-11T06:12:03.390Z,19.96
2022-08-11T06:14:31.085Z,19.90
2022-08-11T06:17:00.371Z,20.04
2022-08-11T06:19:41.511Z,20.15
2022-08-11T06:22:11.330Z,20.41
2022-08-11T06:24:42.758Z,20.41
2022-08-11T06:27:13.865Z,20.44
2022-08-11T06:29:55.066Z,20.54
2022-08-11T06:32:36.094Z,20.60
2022-08-11T06:35:17.885Z,20.74
2022-08-11T06:38:13.201Z,20.87
2022-08-11T06:41:19.826Z,21.01
2022-08-11T06:44:05.315Z,21.13
2022-08-11T06:46:39.081Z,21.30
2022-08-11T06:49:28.261Z,21.43
2022-08-11T06:52:00.642Z,21.56
2022-08-11T06:54:38.768Z,21.74
2022-08-11T06:57:29.813Z,21.92
2022-08-11T07:00:15.540Z,22.16
2022-08-11T07:02:56.357Z,22.41
2022-08-11T07:05:37.864Z,22.71
2022-08-11T07:08:51.131Z,23.02
2022-08-11T07:11:57.667Z,23.30
2022-08-11T07:14:46.366Z,23.56
2022-08-11T07:17:19.687Z,23.96
2022-08-11T07:20:11.824Z,24.21
2022-08-11T07:23:02.353Z,24.27
2022-08-11T07:25:52.109Z,24.32
2022-08-11T07:28:41.754Z,24.59
2022-08-11T07:31:14.780Z,24.86
2022-08-11T07:34:07.502Z,25.11
2022-08-11T07:36:42.834Z,25.37
2022-08-11T07:39:17.141Z,25.69
2022-08-11T07:41:44.098Z,25.71
2022-08-11T07:44:11.701Z,26.06
2022-08-11T07:47:07.626Z,26.41
2022-08-11T07:49:57.722Z,26.67
2022-08-11T07:52:34.085Z,26.92
2022-08-11T07:55:08.633Z,27.01
2022-08-11T07:58:16.839Z,27.19
2022-08-11T08:01:22.229Z,27.13
2022-08-11T08:04:09.420Z,27.24
2022-08-11T08:06:56.062Z,27.45
2022-08-11T08:09:43.057Z,27.64
2022-08-11T08:12:29.510Z,28.19
2022-08-11T08:15:15.685Z,28.25
2022-08-11T08:18:20.826Z,27.91
2022-08-11T08:20:46.683Z,28.13
2022-08-11T08:23:13.905Z,28.41
2022-08-11T08:25:43.697Z,28.88
2022-08-11T08:28:16.484Z,29.25
2022-08-11T08:30:47.958Z,29.43
2022-08-11T08:33:19.834Z,29.90
2022-08-11T08:35:56.165Z,30.20
2022-08-11T08:38:23.513Z,30.67
2022-08-11T08:40:55.780Z,30.88
2022-08-11T08:43:24.706Z,31.14
2022-08-11T08:45:56.189Z,31.34
2022-08-11T08:48:30.644Z,31.56
2022-08-11T08:51:54.916Z,31.05
2022-08-11T08:54:39.829Z,31.19
2022-08-11T08:57:09.250Z,31.70
2022-08-11T08:59:47.753Z,31.98
2022-08-11T09:02:34.506Z,32.57
2022-08-11T09:05:04.241Z,32.79
2022-08-11T09:07:36.069Z,33.20
2022-08-11T09:10:08.483Z,33.33
2022-08-11T09:12:38.826Z,33.30
2022-08-11T09:15:09.206Z,33.45
2022-08-11T09:17:40.440Z,34.05
2022-08-11T09:20:09.845Z,34.61
2022-08-11T09:23:41.392Z,33.15
2022-08-11T09:26:05.202Z,32.77
2022-08-11T09:28:32.872Z,32.21
2022-08-11T09:31:02.179Z,32.73
2022-08-11T09:33:31.601Z,33.97
2022-08-11T09:36:20.218Z,35.04
2022-08-11T09:39:06.152Z,35.49
2022-08-11T09:42:00.582Z,34.47
2022-08-11T09:44:40.821Z,35.12
2022-08-11T09:47:13.228Z,35.85
2022-08-11T09:49:45.227Z,34.87
2022-08-11T09:52:13.860Z,35.71
2022-08-11T09:54:48.162Z,36.51
2022-08-11T09:57:37.110Z,36.64
2022-08-11T10:00:12.544Z,37.44
2022-08-11T10:02:44.507Z,37.34
2022-08-11T10:05:33.525Z,37.23
2022-08-11T10:08:01.507Z,38.07
2022-08-11T10:10:29.874Z,38.75
2022-08-11T10:13:04.759Z,38.95
2022-08-11T10:15:36.708Z,38.98
2022-08-11T10:18:27.522Z,39.47
2022-08-11T10:21:28.414Z,39.86
2022-08-11T10:24:17.254Z,40.18
2022-08-11T10:26:57.187Z,39.62
2022-08-11T10:29:51.976Z,37.25
2022-08-11T10:32:57.315Z,38.29
2022-08-11T10:35:30.563Z,38.79
2022-08-11T10:38:06.717Z,39.75
2022-08-11T10:40:38.025Z,37.09
2022-08-11T10:43:10.666Z,35.68
2022-08-11T10:45:57.752Z,34.92
2022-08-11T10:48:28.067Z,35.67
2022-08-11T10:51:13.391Z,37.13
2022-08-11T10:54:05.094Z,38.81
2022-08-11T10:56:58.270Z,39.01
2022-08-11T10:59:30.375Z,38.95
2022-08-11T11:01:59.133Z,39.18
2022-08-11T11:04:37.811Z,39.84
2022-08-11T11:07:13.852Z,40.65
2022-08-11T11:09:51.209Z,41.22
2022-08-11T11:13:17.596Z,41.14
2022-08-11T11:16:05.508Z,41.40
2022-08-11T11:18:40.418Z,42.13
2022-08-11T11:21:10.183Z,42.05
2022-08-11T11:23:53.693Z,42.15
2022-08-11T11:26:35.459Z,41.91
2022-08-11T11:29:20.603Z,41.22
2022-08-11T11:32:06.244Z,41.33
2022-08-11T11:35:10.202Z,42.28
2022-08-11T11:37:38.277Z,43.04
2022-08-11T11:40:12.971Z,43.44
2022-08-11T11:42:41.831Z,43.65
2022-08-11T11:45:10.060Z,43.90
2022-08-11T11:47:41.033Z,44.17
2022-08-11T11:50:09.573Z,43.90
2022-08-11T11:52:39.554Z,43.52
2022-08-11T11:55:07.320Z,43.94
2022-08-11T11:57:58.778Z,44.13
2022-08-11T12:00:45.557Z,44.46
2022-08-11T12:03:13.398Z,44.79
2022-08-11T12:05:43.178Z,45.05
2022-08-11T12:08:22.394Z,45.16
2022-08-11T12:11:30.486Z,45.40
2022-08-11T12:14:02.152Z,45.43
2022-08-11T12:16:34.558Z,45.14
2022-08-11T12:19:06.139Z,45.30
2022-08-11T12:21:35.132Z,45.34
2022-08-11T12:24:22.018Z,45.29
2022-08-11T12:27:14.663Z,44.97
2022-08-11T12:29:36.473Z,44.56
2022-08-11T12:32:09.000Z,44.69
2022-08-11T12:34:36.619Z,45.06
2022-08-11T12:37:07.118Z,45.50
2022-08-11T12:40:12.913Z,44.95
2022-08-11T12:43:21.673Z,44.61
2022-08-11T12:45:58.409Z,44.87
2022-08-11T12:48:59.589Z,45.23
2022-08-11T12:52:11.213Z,44.97
2022-08-11T12:54:38.197Z,44.79
2022-08-11T12:57:36.698Z,44.91
2022-08-11T13:00:25.215Z,44.86
2022-08-11T13:03:11.856Z,44.64
2022-08-11T13:05:44.542Z,44.57
2022-08-11T13:08:16.880Z,44.90
2022-08-11T13:11:04.465Z,45.31
2022-08-11T13:13:53.886Z,45.70
2022-08-11T13:16:20.648Z,46.01
2022-08-11T13:18:48.308Z,45.77
2022-08-11T13:21:20.082Z,45.66
2022-08-11T13:24:00.609Z,45.93
2022-08-11T13:26:47.340Z,45.93
2022-08-11T13:29:21.472Z,45.35
2022-08-11T13:31:48.817Z,44.76
2022-08-11T13:34:17.659Z,44.88
2022-08-11T13:36:45.384Z,45.25
2022-08-11T13:39:13.667Z,45.64
2022-08-11T13:41:44.180Z,45.60
2022-08-11T13:44:15.836Z,45.43
2022-08-11T13:46:46.268Z,45.52
2022-08-11T13:49:17.490Z,44.61
2022-08-11T13:51:44.486Z,43.37
2022-08-11T13:54:18.979Z,42.92
2022-08-11T13:56:48.631Z,42.95
2022-08-11T13:59:20.412Z,42.92
2022-08-11T14:02:19.524Z,43.05
2022-08-11T14:04:58.007Z,43.91
2022-08-11T14:07:35.516Z,44.20
2022-08-11T14:10:07.578Z,44.64
2022-08-11T14:12:55.300Z,44.99
2022-08-11T14:15:31.435Z,45.25
2022-08-11T14:18:11.589Z,45.23
2022-08-11T14:21:00.395Z,45.10
2022-08-11T14:23:35.580Z,45.11
2022-08-11T14:26:26.598Z,45.15
2022-08-11T14:29:14.130Z,45.31
2022-08-11T14:31:45.566Z,44.91
2022-08-11T14:34:14.673Z,44.10
2022-08-11T14:36:47.246Z,43.51
2022-08-11T14:39:20.236Z,42.78
2022-08-11T14:42:26.166Z,42.68
2022-08-11T14:45:15.344Z,43.13
2022-08-11T14:47:44.547Z,43.37
2022-08-11T14:50:16.107Z,42.52
2022-08-11T14:52:48.666Z,42.37
2022-08-11T14:55:35.050Z,42.39
2022-08-11T14:58:03.683Z,42.82
2022-08-11T15:00:34.949Z,43.04
2022-08-11T15:03:13.234Z,43.16
2022-08-11T15:05:55.782Z,43.47
2022-08-11T15:08:46.312Z,43.67
2022-08-11T15:11:34.188Z,43.68
2022-08-11T15:14:04.806Z,43.67
2022-08-11T15:16:50.548Z,43.32
2022-08-11T15:19:21.407Z,42.75
2022-08-11T15:22:08.806Z,42.70
2022-08-11T15:24:37.490Z,42.80
2022-08-11T15:27:34.860Z,42.96
2022-08-11T15:30:33.081Z,42.82
2022-08-11T15:33:27.609Z,42.61
2022-08-11T15:36:15.043Z,42.72
2022-08-11T15:38:55.199Z,42.58
2022-08-11T15:41:46.618Z,42.61
2022-08-11T15:45:02.250Z,42.33
2022-08-11T15:47:37.508Z,42.05
2022-08-11T15:50:10.486Z,41.91
2022-08-11T15:52:46.487Z,41.73
2022-08-11T15:55:14.500Z,41.74
2022-08-11T15:58:15.492Z,41.82
2022-08-11T16:01:09.035Z,41.60
2022-08-11T16:04:07.189Z,41.34
2022-08-11T16:06:37.616Z,41.19
2022-08-11T16:09:17.999Z,40.77
2022-08-11T16:12:12.815Z,40.34
2022-08-11T16:15:06.906Z,40.14
2022-08-11T16:18:04.042Z,40.18
2022-08-11T16:20:34.114Z,40.01
2022-08-11T16:23:07.439Z,40.04
2022-08-11T16:27:01.514Z,39.90
2022-08-11T16:28:26.373Z,39.77
2022-08-11T16:30:55.602Z,39.47
2022-08-11T16:33:51.203Z,39.41
2022-08-11T16:36:31.683Z,39.31
2022-08-11T16:39:00.069Z,39.14
2022-08-11T16:41:49.915Z,39.02
2022-08-11T16:44:38.527Z,38.91
2022-08-11T16:47:10.308Z,38.71
2022-08-11T16:49:43.000Z,38.69
2022-08-11T16:52:14.072Z,38.51
2022-08-11T16:54:44.689Z,38.33
2022-08-11T16:57:43.778Z,38.11
2022-08-11T17:00:16.187Z,37.98
2022-08-11T17:03:10.279Z,37.89
2022-08-11T17:06:00.541Z,37.57
2022-08-11T17:08:56.750Z,37.40
2022-08-11T17:11:46.585Z,37.46
2022-08-11T17:14:16.408Z,37.27
2022-08-11T17:16:49.182Z,37.14
2022-08-11T17:20:42.730Z,37.12
2022-08-11T17:22:38.006Z,37.00
2022-08-11T17:25:09.965Z,36.95
2022-08-11T17:27:39.057Z,36.86
2022-08-11T17:30:08.293Z,36.73
2022-08-11T17:33:00.614Z,36.47
2022-08-11T17:35:35.981Z,36.43
2022-08-11T17:38:17.694Z,36.28
2022-08-11T17:41:10.535Z,36.11
2022-08-11T17:44:05.381Z,35.90
2022-08-11T17:46:52.848Z,35.73
2022-08-11T17:49:20.461Z,35.56
2022-08-11T17:52:08.615Z,35.37
2022-08-11T17:54:56.296Z,35.10
2022-08-11T17:57:47.058Z,34.92
2022-08-11T18:00:15.308Z,34.71
2022-08-11T18:03:03.522Z,34.55
2022-08-11T18:05:34.055Z,34.26
2022-08-11T18:08:27.329Z,33.99
2022-08-11T18:11:17.214Z,33.75
2022-08-11T18:14:11.344Z,33.53
2022-08-11T18:16:57.119Z,33.31
2022-08-11T18:19:42.817Z,33.13
2022-08-11T18:22:34.567Z,32.93
2022-08-11T18:25:49.576Z,32.67
2022-08-11T18:28:39.668Z,32.46
2022-08-11T18:31:28.148Z,32.28
2022-08-11T18:34:16.586Z,32.08
2022-08-11T18:37:10.110Z,31.91
2022-08-11T18:40:08.758Z,31.72
2022-08-11T18:42:55.314Z,31.57
2022-08-11T18:45:46.092Z,31.42
2022-08-11T18:48:37.131Z,31.31
2022-08-11T18:51:31.558Z,31.16
2022-08-11T18:54:27.403Z,31.09
2022-08-11T18:57:16.509Z,30.94
2022-08-11T19:00:03.522Z,30.84
2022-08-11T19:02:51.042Z,30.67
2022-08-11T19:06:35.622Z,30.61
2022-08-11T19:08:50.039Z,30.49
2022-08-11T19:11:42.425Z,30.22
2022-08-11T19:14:31.854Z,30.23
2022-08-11T19:17:43.647Z,30.08
2022-08-11T19:20:30.245Z,29.92
2022-08-11T19:23:17.034Z,29.77
2022-08-11T19:26:03.897Z,29.61
2022-08-11T19:28:50.958Z,29.45
2022-08-11T19:31:42.305Z,29.29
2022-08-11T19:34:33.195Z,29.08
2022-08-11T19:37:24.090Z,28.99
2022-08-11T19:40:12.863Z,28.85
2022-08-11T19:43:02.492Z,28.72
2022-08-11T19:45:50.575Z,28.57
2022-08-11T19:48:40.326Z,28.35
2022-08-11T19:51:28.320Z,28.36
2022-08-11T19:54:14.368Z,28.17
2022-08-11T19:57:02.559Z,28.04
2022-08-11T19:59:49.197Z,28.07
2022-08-11T20:02:36.081Z,27.97
2022-08-11T20:05:22.222Z,27.70
2022-08-11T20:08:10.579Z,27.72
2022-08-11T20:10:56.807Z,27.50
2022-08-11T20:13:44.774Z,27.46
2022-08-11T20:16:32.677Z,27.39
2022-08-11T20:19:26.308Z,27.38
2022-08-11T20:22:26.969Z,27.27
2022-08-11T20:25:14.037Z,27.21
2022-08-11T20:28:04.497Z,27.14
2022-08-11T20:30:51.659Z,27.04
2022-08-11T20:33:41.312Z,26.84
2022-08-11T20:36:27.339Z,26.59
2022-08-11T20:39:14.510Z,26.41
2022-08-11T20:42:00.781Z,26.38
2022-08-11T20:44:48.228Z,26.29
2022-08-11T20:47:56.319Z,26.27
2022-08-11T20:50:45.689Z,26.11
2022-08-11T20:53:36.759Z,26.05
2022-08-11T20:56:28.563Z,25.83
2022-08-11T20:59:18.788Z,25.75
2022-08-11T21:02:09.625Z,25.64
2022-08-11T21:04:57.697Z,25.59
2022-08-11T21:07:57.330Z,25.47
2022-08-11T21:10:51.423Z,25.40
2022-08-11T21:16:49.471Z,25.20
2022-08-11T21:20:06.559Z,25.08
2022-08-11T21:23:05.408Z,24.95
2022-08-11T21:26:08.210Z,24.89
2022-08-11T21:28:56.282Z,24.75
2022-08-11T21:31:44.039Z,24.58
2022-08-11T21:34:40.642Z,24.46
2022-08-11T21:37:27.744Z,24.45
2022-08-11T21:40:17.051Z,24.44
2022-08-11T21:43:07.444Z,24.33
2022-08-11T21:45:55.653Z,24.34
2022-08-11T21:48:45.983Z,24.28
2022-08-11T21:51:32.483Z,24.28
2022-08-11T21:54:19.647Z,24.04
2022-08-11T21:57:06.299Z,24.11
2022-08-11T22:00:18.823Z,24.06
2022-08-11T22:03:07.064Z,24.01
2022-08-11T22:05:53.536Z,23.97
2022-08-11T22:08:38.791Z,23.92
2022-08-11T22:11:32.037Z,23.94
2022-08-11T22:14:18.387Z,23.88
2022-08-11T22:17:03.564Z,23.95
2022-08-11T22:19:49.435Z,23.93
2022-08-11T22:22:52.254Z,23.89
2022-08-11T22:25:51.037Z,23.84
2022-08-11T22:28:37.165Z,23.72
2022-08-11T22:31:24.345Z,23.77
2022-08-11T22:34:09.695Z,23.68
2022-08-11T22:36:55.010Z,23.70
2022-08-11T22:39:41.446Z,23.72
2022-08-11T22:42:33.709Z,23.71
2022-08-11T22:45:20.056Z,23.61
2022-08-11T22:48:07.816Z,23.66
2022-08-11T22:50:55.761Z,23.68
2022-08-11T22:53:57.715Z,23.63
2022-08-11T22:56:45.528Z,23.62
2022-08-11T22:59:31.916Z,23.47
2022-08-11T23:02:19.878Z,23.38
2022-08-11T23:05:07.249Z,23.38
2022-08-11T23:07:53.909Z,23.26
2022-08-11T23:10:39.818Z,23.20
2022-08-11T23:13:26.460Z,23.15
2022-08-11T23:16:13.805Z,23.11
2022-08-11T23:18:59.606Z,23.05
2022-08-11T23:21:46.906Z,22.99
2022-08-11T23:24:32.786Z,22.92
2022-08-11T23:27:19.358Z,22.79
2022-08-11T23:30:06.522Z,22.75
2022-08-11T23:32:52.753Z,22.68
2022-08-11T23:35:53.628Z,22.58
2022-08-11T23:38:40.855Z,22.41
2022-08-11T23:41:26.177Z,22.36
2022-08-11T23:44:11.809Z,22.33
2022-08-11T23:46:57.900Z,22.27
2022-08-11T23:49:43.464Z,22.26
2022-08-11T23:52:30.518Z,22.16
2022-08-11T23:55:16.932Z,22.10
2022-08-11T23:58:03.152Z,22.07
